Time;durP1;ratioP1;P1;durP2;ratioP2;P2;SDS_P1;SDS_P2;PMS_P1;PMS_P2;Temp;Humidity;BMP_temperature;BMP_pressure;BME280_temperature;BME280_humidity;BME280_pressure;Samples;Min_cycle;Max_cycle;Signal;HPM_P1;HPM_P2
2021/12/31 00:00:53;;;;;;;0.80;0.80;;;;;;;14.08;90.11;96321.69;4993685;28;20606;-81
2021/12/31 00:03:19;;;;;;;1.73;1.20;;;;;;;14.08;89.87;96315.69;4993673;28;20207;-80
2021/12/31 00:05:46;;;;;;;1.30;1.07;;;;;;;14.08;89.86;96318.28;4992929;28;20195;-80
2021/12/31 00:08:14;;;;;;;1.97;1.17;;;;;;;14.05;90.02;96313.47;4992990;28;20246;-80
2021/12/31 00:10:40;;;;;;;1.63;1.00;;;;;;;14.06;90.01;96317.66;4992739;28;20228;-81
2021/12/31 00:13:07;;;;;;;1.20;1.10;;;;;;;14.00;89.86;96305.47;4993220;28;20667;-81
2021/12/31 00:15:34;;;;;;;1.08;0.98;;;;;;;14.02;90.09;96304.28;4992680;28;20195;-80
2021/12/31 00:18:00;;;;;;;0.95;0.85;;;;;;;14.04;89.69;96304.13;4992362;28;20594;-81
2021/12/31 00:20:27;;;;;;;1.10;1.00;;;;;;;14.03;89.76;96297.34;4992736;28;20671;-78
2021/12/31 00:23:02;;;;;;;0.90;0.90;;;;;;;14.01;89.65;96309.66;4992668;28;20209;-80
2021/12/31 00:25:31;;;;;;;1.03;0.97;;;;;;;13.95;89.85;96316.34;4976534;28;20206;-80
2021/12/31 00:27:57;;;;;;;1.00;0.80;;;;;;;13.92;90.24;96311.53;4991894;28;20207;-80
2021/12/31 00:30:24;;;;;;;0.80;0.80;;;;;;;13.93;90.29;96315.72;4992587;28;20227;-80
2021/12/31 00:32:50;;;;;;;0.80;0.80;;;;;;;13.98;90.24;96315.19;4993073;28;20207;-80
2021/12/31 00:35:17;;;;;;;1.00;0.90;;;;;;;14.03;89.51;96318.84;4992862;28;20380;-80
2021/12/31 00:37:44;;;;;;;0.77;0.77;;;;;;;13.97;89.65;96321.34;4992876;28;20566;-80
2021/12/31 00:40:14;;;;;;;0.80;0.80;;;;;;;13.97;89.72;96322.16;4991739;28;20721;-80
2021/12/31 00:42:42;;;;;;;1.03;0.70;;;;;;;13.97;89.68;96321.34;4992399;28;20203;-80
2021/12/31 00:45:10;;;;;;;0.70;0.70;;;;;;;13.96;89.68;96324.91;4992091;28;20203;-80
2021/12/31 00:47:37;;;;;;;0.80;0.80;;;;;;;13.96;89.77;96325.72;4991697;28;20199;-80
2021/12/31 00:50:05;;;;;;;0.97;0.90;;;;;;;14.02;89.47;96326.78;4992327;28;20230;-81
2021/12/31 00:52:31;;;;;;;0.80;0.80;;;;;;;13.96;89.23;96317.94;4992074;28;20206;-79
2021/12/31 00:54:58;;;;;;;0.90;0.80;;;;;;;13.98;89.41;96320.38;4992291;28;20195;-78
2021/12/31 00:57:24;;;;;;;0.70;0.70;;;;;;;14.03;88.88;96325.81;4991848;28;20211;-80
2021/12/31 00:59:52;;;;;;;0.70;0.70;;;;;;;13.96;88.55;96322.31;4991649;28;20242;-80
2021/12/31 01:02:21;;;;;;;1.20;0.73;;;;;;;13.88;88.99;96320.63;4992329;28;20202;-80
2021/12/31 01:04:47;;;;;;;0.70;0.70;;;;;;;13.90;89.05;96315.28;4992343;28;20200;-80
2021/12/31 01:07:14;;;;;;;0.70;0.70;;;;;;;13.86;89.22;96319.19;4991637;28;20203;-81
2021/12/31 01:09:40;;;;;;;0.80;0.70;;;;;;;13.85;89.31;96322.78;4992273;28;20238;-80
2021/12/31 01:12:10;;;;;;;0.70;0.70;;;;;;;13.90;89.07;96323.03;4991627;28;20199;-81
2021/12/31 01:14:39;;;;;;;0.73;0.73;;;;;;;13.85;88.78;96323.59;4991664;28;20203;-80
2021/12/31 01:17:11;;;;;;;0.70;0.70;;;;;;;13.90;88.64;96328.22;4992655;28;20563;-79
2021/12/31 01:19:46;;;;;;;0.70;0.70;;;;;;;13.88;88.61;96335.34;4992201;28;20235;-80
2021/12/31 01:22:14;;;;;;;0.90;0.90;;;;;;;13.84;89.09;96337.50;4992200;28;20199;-80
2021/12/31 01:24:40;;;;;;;1.07;0.97;;;;;;;13.85;88.87;96327.97;4992198;28;20667;-81
2021/12/31 01:27:07;;;;;;;0.60;0.60;;;;;;;13.86;88.71;96334.72;4991944;28;20203;-80
2021/12/31 01:29:33;;;;;;;0.60;0.60;;;;;;;13.85;88.65;96326.19;4991713;28;20246;-80
2021/12/31 01:32:00;;;;;;;0.70;0.70;;;;;;;13.93;88.39;96328.66;4992125;28;20219;-80
2021/12/31 01:34:28;;;;;;;0.70;0.70;;;;;;;13.93;88.62;96331.25;4991637;28;20199;-80
2021/12/31 01:36:54;;;;;;;0.80;0.70;;;;;;;13.98;88.20;96325.53;4992413;28;20202;-80
2021/12/31 01:39:21;;;;;;;0.73;0.70;;;;;;;14.02;87.86;96324.22;4991549;28;20235;-80
2021/12/31 01:41:47;;;;;;;1.13;0.70;;;;;;;14.03;87.51;96325.81;4992031;28;20199;-81
2021/12/31 01:44:14;;;;;;;0.60;0.60;;;;;;;13.96;87.47;96337.88;4991684;28;20200;-79
2021/12/31 01:46:54;;;;;;;0.60;0.60;;;;;;;14.00;87.65;96331.34;4992215;28;20199;-79
2021/12/31 01:49:22;;;;;;;0.70;0.60;;;;;;;13.92;88.00;96332.22;4991092;28;20239;-79
2021/12/31 01:51:50;;;;;;;1.23;0.70;;;;;;;13.89;88.10;96330.00;4991535;28;20711;-80
2021/12/31 01:54:17;;;;;;;1.53;0.80;;;;;;;13.87;88.21;96339.72;4991969;28;20675;-81
2021/12/31 01:56:43;;;;;;;0.90;0.90;;;;;;;13.82;88.07;96329.91;4991641;28;20619;-80
2021/12/31 01:59:11;;;;;;;0.80;0.80;;;;;;;13.82;88.22;96326.53;4991310;28;20243;-80
2021/12/31 02:01:38;;;;;;;0.70;0.70;;;;;;;13.86;88.26;96332.13;4991499;28;20200;-79
2021/12/31 02:04:05;;;;;;;0.60;0.60;;;;;;;13.83;88.11;96336.72;4991665;28;20207;-80
2021/12/31 02:06:33;;;;;;;0.70;0.70;;;;;;;13.86;87.86;96332.94;4990693;28;20203;-80
2021/12/31 02:09:01;;;;;;;0.80;0.80;;;;;;;13.90;87.96;96328.22;4971904;28;20232;-80
2021/12/31 02:11:28;;;;;;;0.70;0.70;;;;;;;13.82;88.08;96326.53;4980021;28;20623;-79
2021/12/31 02:13:55;;;;;;;0.70;0.70;;;;;;;13.83;88.01;96323.75;4991858;28;20222;-79
2021/12/31 02:16:21;;;;;;;1.30;0.67;;;;;;;13.80;88.19;96334.47;4991053;28;20211;-79
2021/12/31 02:18:48;;;;;;;0.70;0.70;;;;;;;13.86;87.89;96332.94;4990848;28;20241;-79
2021/12/31 02:21:16;;;;;;;0.70;0.70;;;;;;;13.93;87.77;96331.25;4990946;28;20199;-80
2021/12/31 02:23:45;;;;;;;0.83;0.83;;;;;;;13.95;87.37;96333.66;4991818;28;20211;-81
2021/12/31 02:26:13;;;;;;;0.80;0.80;;;;;;;13.92;87.43;96337.41;4991793;28;20192;-80
2021/12/31 02:28:40;;;;;;;0.70;0.70;;;;;;;13.92;87.51;96346.97;4994846;28;20242;-80
2021/12/31 02:31:07;;;;;;;0.70;0.70;;;;;;;13.94;87.24;96335.44;4995193;28;20731;-80
2021/12/31 02:33:34;;;;;;;1.10;0.80;;;;;;;13.93;87.36;96338.22;4995650;28;20203;-80
2021/12/31 02:36:03;;;;;;;0.70;0.70;;;;;;;13.92;87.27;96339.19;4995071;28;20818;-79
2021/12/31 02:38:31;;;;;;;1.90;0.90;;;;;;;13.92;87.34;96341.78;4994786;28;20239;-81
2021/12/31 02:40:58;;;;;;;0.70;0.70;;;;;;;13.88;87.33;96336.16;4994726;28;20210;-80
2021/12/31 02:43:24;;;;;;;0.70;0.70;;;;;;;13.93;87.39;96339.03;4995278;28;20262;-80
2021/12/31 02:45:51;;;;;;;0.80;0.80;;;;;;;13.95;87.37;96334.47;4994284;28;20207;-80
2021/12/31 02:48:24;;;;;;;0.80;0.80;;;;;;;13.96;86.94;96327.50;4994172;28;20690;-80
2021/12/31 02:50:53;;;;;;;0.83;0.83;;;;;;;13.95;86.84;96325.91;4994742;28;20306;-80
2021/12/31 02:53:24;;;;;;;0.70;0.70;;;;;;;13.94;87.01;96327.69;4983899;28;20199;-80
2021/12/31 02:55:59;;;;;;;0.70;0.70;;;;;;;13.90;87.08;96329.00;4994039;28;20207;-80
2021/12/31 02:58:26;;;;;;;1.07;0.70;;;;;;;13.94;87.01;96327.69;4993363;28;20234;-79
2021/12/31 03:00:52;;;;;;;0.90;0.87;;;;;;;13.98;86.80;96328.13;4994327;28;20829;-80
2021/12/31 03:03:20;;;;;;;0.70;0.70;;;;;;;13.98;86.10;96320.38;4994538;28;20215;-80
2021/12/31 03:05:47;;;;;;;0.70;0.70;;;;;;;13.99;86.47;96321.97;4993744;28;20204;-80
2021/12/31 03:08:15;;;;;;;0.70;0.70;;;;;;;13.96;86.39;96317.94;4993997;28;20246;-80
2021/12/31 03:10:43;;;;;;;1.10;1.00;;;;;;;13.96;86.10;96317.16;4993710;28;20227;-79
2021/12/31 03:13:11;;;;;;;0.80;0.80;;;;;;;13.90;86.15;96318.66;4994241;28;20671;-80
2021/12/31 03:15:38;;;;;;;0.80;0.80;;;;;;;13.85;86.30;96313.25;4993394;28;20199;-80
2021/12/31 03:18:06;;;;;;;2.53;0.90;;;;;;;13.78;86.31;96309.75;4993699;28;20212;-81
2021/12/31 03:20:38;;;;;;;0.90;0.80;;;;;;;13.79;86.47;96314.75;4994052;28;20599;-80
2021/12/31 03:23:05;;;;;;;0.93;0.93;;;;;;;13.77;86.48;96313.31;4994420;28;20203;-79
2021/12/31 03:25:32;;;;;;;1.13;0.90;;;;;;;13.82;86.51;96311.81;4993440;28;20202;-80
2021/12/31 03:27:59;;;;;;;0.90;0.90;;;;;;;13.85;86.37;96309.84;4993796;28;20697;-78
2021/12/31 03:30:27;;;;;;;0.80;0.80;;;;;;;13.78;86.15;96315.72;4993607;28;20207;-79
2021/12/31 03:32:53;;;;;;;1.17;0.83;;;;;;;13.78;86.57;96309.75;4993973;28;20203;-79
2021/12/31 03:35:20;;;;;;;2.07;0.83;;;;;;;13.71;87.08;96311.44;4993480;28;20195;-80
2021/12/31 03:37:47;;;;;;;1.37;0.90;;;;;;;13.72;87.00;96303.50;4992602;28;20206;-79
2021/12/31 03:40:14;;;;;;;0.90;0.90;;;;;;;13.71;87.42;96301.06;4993257;28;20714;-80
2021/12/31 03:42:41;;;;;;;0.80;0.80;;;;;;;13.69;87.42;96301.25;4993583;28;20195;-80
2021/12/31 03:45:08;;;;;;;1.63;0.80;;;;;;;13.62;88.13;96297.78;4993327;28;20242;-80
2021/12/31 03:47:36;;;;;;;1.10;1.00;;;;;;;13.59;88.43;96294.75;4993910;28;20203;-80
2021/12/31 03:50:02;;;;;;;1.00;1.00;;;;;;;13.48;89.21;96286.41;4993214;28;20301;-80
2021/12/31 03:52:29;;;;;;;0.90;0.90;;;;;;;13.48;89.54;96288.19;4992934;28;20232;-80
2021/12/31 03:54:55;;;;;;;1.13;0.90;;;;;;;13.51;89.32;96295.63;4992841;28;20210;-80
2021/12/31 03:57:21;;;;;;;1.10;1.00;;;;;;;13.48;89.60;96294.19;4993763;28;20215;-80
2021/12/31 03:59:48;;;;;;;1.00;1.00;;;;;;;13.52;89.29;96292.06;4992699;28;20239;-80
2021/12/31 04:02:14;;;;;;;0.97;0.97;;;;;;;13.56;88.94;96295.09;4993244;28;20192;-80
2021/12/31 04:04:42;;;;;;;0.90;0.90;;;;;;;13.57;88.74;96287.16;4992961;28;20214;-80
2021/12/31 04:07:09;;;;;;;1.23;1.13;;;;;;;13.62;88.45;96284.84;4992750;28;20199;-79
2021/12/31 04:09:35;;;;;;;1.00;0.80;;;;;;;13.59;88.47;96285.19;4992441;28;20250;-80
2021/12/31 04:12:01;;;;;;;1.97;1.00;;;;;;;13.64;88.16;96289.84;4992923;28;20219;-79
2021/12/31 04:14:28;;;;;;;1.10;1.00;;;;;;;13.60;88.15;96286.00;4992773;28;20204;-80
2021/12/31 04:16:54;;;;;;;1.93;0.90;;;;;;;13.63;87.96;96283.88;4992952;28;20631;-79
2021/12/31 04:19:21;;;;;;;1.20;1.10;;;;;;;13.64;87.61;96290.66;4992737;28;20878;-80
2021/12/31 04:21:50;;;;;;;1.00;1.00;;;;;;;13.56;87.61;96279.56;4992411;28;20203;-81
2021/12/31 04:24:28;;;;;;;1.20;1.10;;;;;;;13.56;87.68;96279.56;4992557;28;20214;-79
2021/12/31 04:26:55;;;;;;;1.30;1.20;;;;;;;13.58;87.99;96272.44;4987620;28;20206;-78
2021/12/31 04:29:22;;;;;;;1.00;0.90;;;;;;;13.59;87.15;96277.44;4991930;28;20235;-79
2021/12/31 04:31:48;;;;;;;1.10;1.00;;;;;;;13.57;87.43;96268.25;4992301;28;20782;-80
2021/12/31 04:34:15;;;;;;;1.00;1.00;;;;;;;13.56;87.17;96262.25;4992527;28;20199;-80
2021/12/31 04:36:41;;;;;;;1.30;1.20;;;;;;;13.51;87.14;96264.56;4991245;28;20211;-80
2021/12/31 04:39:09;;;;;;;0.83;0.83;;;;;;;13.54;87.29;96266.00;4992054;28;20255;-80
2021/12/31 04:41:35;;;;;;;1.00;1.00;;;;;;;13.55;86.93;96260.66;4992395;28;20200;-79
2021/12/31 04:44:02;;;;;;;0.97;0.97;;;;;;;13.56;86.99;96264.84;4992483;28;20207;-80
2021/12/31 04:46:28;;;;;;;1.20;1.10;;;;;;;13.54;86.87;96266.00;4991493;28;20203;-80
2021/12/31 04:48:55;;;;;;;1.17;1.10;;;;;;;13.53;86.92;96265.19;4991392;28;20235;-80
2021/12/31 04:51:21;;;;;;;1.27;1.17;;;;;;;13.56;86.80;96266.63;4991180;28;20227;-80
2021/12/31 04:53:48;;;;;;;1.17;1.00;;;;;;;13.60;86.62;96263.50;4992337;28;20593;-80
2021/12/31 04:56:15;;;;;;;1.00;1.00;;;;;;;13.59;86.47;96261.91;4991873;28;20199;-80
2021/12/31 04:58:42;;;;;;;2.60;1.10;;;;;;;13.59;86.31;96255.94;4992045;28;20235;-80
2021/12/31 05:01:08;;;;;;;1.27;1.07;;;;;;;13.60;86.01;96265.31;4992279;28;20199;-80
2021/12/31 05:03:35;;;;;;;1.30;1.20;;;;;;;13.57;85.70;96263.88;4991899;28;20207;-80
2021/12/31 05:06:01;;;;;;;1.10;1.00;;;;;;;13.54;85.94;96263.41;4992066;28;20203;-80
2021/12/31 05:08:27;;;;;;;1.27;1.20;;;;;;;13.58;85.99;96262.09;4991537;28;20235;-80
2021/12/31 05:10:54;;;;;;;1.00;1.00;;;;;;;13.59;85.25;96267.09;4991836;28;20217;-80
2021/12/31 05:13:22;;;;;;;1.90;1.00;;;;;;;13.61;85.23;96269.50;4991906;28;20195;-80
2021/12/31 05:15:51;;;;;;;1.07;0.97;;;;;;;13.63;85.12;96268.34;4991778;28;20204;-80
2021/12/31 05:18:17;;;;;;;2.07;1.10;;;;;;;13.64;84.59;96258.78;4971864;28;20236;-80
2021/12/31 05:20:44;;;;;;;1.10;1.00;;;;;;;13.64;84.39;96257.00;4972907;28;20212;-80
2021/12/31 05:23:11;;;;;;;1.37;1.20;;;;;;;13.62;84.20;96258.97;4991632;28;20199;-80
2021/12/31 05:25:37;;;;;;;1.10;0.90;;;;;;;13.62;83.99;96263.34;4992326;28;20679;-80
2021/12/31 05:28:04;;;;;;;1.20;1.10;;;;;;;13.61;84.08;96264.31;4991261;28;20204;-80
2021/12/31 05:30:32;;;;;;;1.97;1.10;;;;;;;13.57;83.62;96266.44;4992172;28;20211;-80
2021/12/31 05:32:58;;;;;;;0.83;0.83;;;;;;;13.58;83.92;96264.66;4991740;28;20691;-80
2021/12/31 05:35:25;;;;;;;1.20;1.10;;;;;;;13.58;83.67;96264.66;4991770;28;20211;-80
2021/12/31 05:37:52;;;;;;;1.30;1.20;;;;;;;13.58;83.76;96262.88;4992469;28;20203;-80
2021/12/31 05:40:19;;;;;;;1.20;1.10;;;;;;;13.60;83.57;96263.50;4992492;28;20215;-80
2021/12/31 05:42:45;;;;;;;1.20;1.10;;;;;;;13.53;83.55;96262.63;4992376;28;20191;-79
2021/12/31 05:45:12;;;;;;;1.37;1.07;;;;;;;13.43;83.26;96262.09;4991663;28;20199;-79
2021/12/31 05:47:40;;;;;;;1.17;0.93;;;;;;;13.32;83.55;96260.72;4991821;28;20200;-79
2021/12/31 05:50:18;;;;;;;0.97;0.90;;;;;;;13.27;83.85;96268.22;4991439;28;20239;-80
2021/12/31 05:52:44;;;;;;;1.10;1.00;;;;;;;13.24;83.94;96265.19;4987594;28;20230;-79
2021/12/31 05:55:11;;;;;;;1.30;1.03;;;;;;;13.24;83.89;96260.81;4991542;28;20227;-79
2021/12/31 05:57:38;;;;;;;0.97;0.97;;;;;;;13.21;83.78;96261.16;4980726;28;20207;-80
2021/12/31 06:00:06;;;;;;;1.23;0.93;;;;;;;13.17;83.97;96257.31;4989824;28;20235;-80
2021/12/31 06:02:32;;;;;;;0.87;0.87;;;;;;;13.19;83.74;96260.53;4994803;28;20211;-80
2021/12/31 06:05:00;;;;;;;1.03;1.03;;;;;;;13.25;83.93;96251.28;4995596;28;20207;-80
2021/12/31 06:07:27;;;;;;;0.90;0.90;;;;;;;13.29;83.56;96260.25;4995156;28;20200;-80
2021/12/31 06:09:53;;;;;;;1.00;0.90;;;;;;;13.31;83.06;96259.09;4995262;28;20230;-80
2021/12/31 06:12:20;;;;;;;0.97;0.97;;;;;;;13.32;83.00;96265.88;4995259;28;20215;-80
2021/12/31 06:14:48;;;;;;;1.10;1.00;;;;;;;13.34;83.34;96257.97;4996349;28;20209;-80
2021/12/31 06:17:16;;;;;;;4.00;1.10;;;;;;;13.37;82.62;96255.03;4996414;28;20200;-79
2021/12/31 06:19:45;;;;;;;1.87;1.20;;;;;;;13.29;83.20;96257.69;4996121;28;20235;-79
2021/12/31 06:22:13;;;;;;;1.30;1.20;;;;;;;13.34;83.18;96256.16;4995135;28;20254;-78
2021/12/31 06:24:41;;;;;;;1.00;1.00;;;;;;;13.30;82.66;96259.28;4996265;28;20203;-80
2021/12/31 06:27:08;;;;;;;1.07;0.97;;;;;;;13.33;82.81;96264.09;4995804;28;20623;-81
2021/12/31 06:29:34;;;;;;;1.10;0.90;;;;;;;13.32;82.39;96265.09;4994994;28;20290;-80
2021/12/31 06:32:01;;;;;;;1.13;1.07;;;;;;;13.30;82.41;96265.25;4994888;28;20216;-79
2021/12/31 06:34:27;;;;;;;1.13;0.93;;;;;;;13.26;82.34;96276.97;4994739;28;20195;-78
2021/12/31 06:36:54;;;;;;;0.90;0.90;;;;;;;13.26;82.86;96279.53;4995246;28;20203;-80
2021/12/31 06:39:22;;;;;;;1.50;1.10;;;;;;;13.25;82.27;96279.72;4995373;28;20246;-80
2021/12/31 06:41:48;;;;;;;1.30;1.20;;;;;;;13.17;83.24;96280.59;4995316;28;20203;-80
2021/12/31 06:44:15;;;;;;;1.00;1.00;;;;;;;13.16;83.53;96276.38;4996588;28;20238;-79
2021/12/31 06:46:41;;;;;;;1.07;1.07;;;;;;;13.21;83.64;96281.84;4995151;28;20199;-78
2021/12/31 06:49:08;;;;;;;1.03;1.00;;;;;;;13.15;83.21;96285.13;4995144;28;20258;-80
2021/12/31 06:51:34;;;;;;;1.40;1.27;;;;;;;13.24;83.47;96285.88;4995003;28;20207;-80
2021/12/31 06:54:00;;;;;;;2.13;1.10;;;;;;;13.25;83.18;96287.47;4995162;28;20204;-80
2021/12/31 06:56:28;;;;;;;1.40;1.30;;;;;;;13.28;83.06;96285.31;4994524;28;20203;-80
2021/12/31 06:58:55;;;;;;;1.73;1.10;;;;;;;13.32;82.90;96281.41;4994596;28;20243;-80
2021/12/31 07:01:22;;;;;;;1.00;1.00;;;;;;;13.33;82.41;96285.59;4995593;28;20208;-80
2021/12/31 07:03:49;;;;;;;1.47;1.00;;;;;;;13.35;82.51;96282.84;4995480;28;20262;-80
2021/12/31 07:06:15;;;;;;;1.10;1.00;;;;;;;13.33;81.77;96279.63;4995196;28;20563;-80
2021/12/31 07:08:42;;;;;;;1.00;1.00;;;;;;;13.33;82.08;96274.44;4994806;28;20243;-80
2021/12/31 07:11:08;;;;;;;1.33;1.20;;;;;;;13.32;82.14;96275.44;4995895;28;20583;-80
2021/12/31 07:13:37;;;;;;;1.90;1.27;;;;;;;13.33;81.80;96269.28;4991450;28;20226;-80
2021/12/31 07:16:05;;;;;;;1.00;0.93;;;;;;;13.32;81.38;96263.31;4992470;28;20718;-80
2021/12/31 07:18:31;;;;;;;1.13;1.03;;;;;;;13.32;81.27;96272.84;4996392;28;20239;-80
2021/12/31 07:20:58;;;;;;;0.87;0.87;;;;;;;13.30;81.01;96272.22;4995906;28;20207;-80
2021/12/31 07:23:24;;;;;;;2.60;2.13;;;;;;;13.31;81.30;96268.66;4994869;28;20247;-80
2021/12/31 07:25:52;;;;;;;20.37;18.17;;;;;;;13.30;81.35;96270.44;4993638;28;20210;-80
2021/12/31 07:28:18;;;;;;;7.43;6.67;;;;;;;13.32;80.94;96271.06;4992271;28;20375;-80
2021/12/31 07:30:47;;;;;;;2.10;1.90;;;;;;;13.35;80.92;96275.09;4992362;28;20203;-80
2021/12/31 07:33:16;;;;;;;1.27;1.17;;;;;;;13.38;80.33;96279.91;4992502;28;20230;-80
2021/12/31 07:35:42;;;;;;;1.23;1.10;;;;;;;13.40;80.32;96273.59;4991774;28;20211;-80
2021/12/31 07:38:17;;;;;;;1.33;1.23;;;;;;;13.43;80.09;96281.00;4991443;28;20235;-80
2021/12/31 07:40:44;;;;;;;2.30;1.10;;;;;;;13.44;80.08;96280.00;4990153;28;20694;-80
2021/12/31 07:43:11;;;;;;;1.13;1.10;;;;;;;13.42;79.37;96276.00;4993328;28;20192;-80
2021/12/31 07:45:38;;;;;;;1.93;1.10;;;;;;;13.36;79.24;96274.09;4991399;28;20203;-80
2021/12/31 07:48:06;;;;;;;2.67;1.40;;;;;;;13.31;79.96;96268.66;4992536;28;20211;-80
2021/12/31 07:50:36;;;;;;;1.10;1.00;;;;;;;13.35;80.09;96275.09;4992393;28;20195;-80
2021/12/31 07:53:02;;;;;;;2.87;1.00;;;;;;;13.43;80.07;96277.59;4992771;28;20242;-80
2021/12/31 07:55:29;;;;;;;1.30;1.20;;;;;;;13.52;79.67;96275.72;4992532;28;20208;-80
2021/12/31 07:57:56;;;;;;;1.53;1.23;;;;;;;13.73;79.09;96279.22;4991257;28;20671;-80
2021/12/31 08:00:22;;;;;;;1.40;1.30;;;;;;;13.83;77.34;96276.38;4991777;28;20207;-80
2021/12/31 08:02:59;;;;;;;1.30;1.20;;;;;;;13.94;76.66;96269.91;4991908;28;20196;-80
2021/12/31 08:05:36;;;;;;;1.00;1.00;;;;;;;14.11;76.56;96273.91;4992425;28;20645;-80
2021/12/31 08:08:07;;;;;;;1.30;1.20;;;;;;;14.27;75.86;96286.66;4991810;28;20203;-80
2021/12/31 08:10:57;;;;;;;;;;;;;;;;;;;;;
2021/12/31 08:13:27;;;;;;;1.57;1.10;;;;;;;14.36;75.34;96292.53;4973607;28;20224;-80
2021/12/31 08:15:56;;;;;;;1.50;1.10;;;;;;;14.33;75.00;96305.84;4991553;28;20204;-80
2021/12/31 08:18:40;;;;;;;0.80;0.80;;;;;;;14.18;74.94;96305.88;4989932;28;20227;-80
2021/12/31 08:21:12;;;;;;;0.80;0.80;;;;;;;14.11;75.23;96302.41;4992385;28;20223;-80
2021/12/31 08:23:41;;;;;;;0.93;0.93;;;;;;;14.10;75.28;96300.78;4991170;28;20195;-80
2021/12/31 08:26:08;;;;;;;1.30;1.20;;;;;;;14.05;75.27;96303.09;4992195;28;20196;-80
2021/12/31 08:28:34;;;;;;;1.27;1.17;;;;;;;14.02;75.50;96299.13;4991747;28;20235;-81
2021/12/31 08:31:01;;;;;;;1.30;1.20;;;;;;;14.00;75.44;96303.66;4989211;28;20195;-80
2021/12/31 08:33:27;;;;;;;1.30;1.20;;;;;;;13.95;75.18;96312.94;4992585;28;20235;-80
2021/12/31 08:35:55;;;;;;;1.87;1.47;;;;;;;13.97;74.98;96316.97;4991075;28;20650;-80
2021/12/31 08:38:23;;;;;;;1.13;1.10;;;;;;;13.94;74.86;96316.53;4991974;28;20250;-80
2021/12/31 08:40:49;;;;;;;1.73;1.20;;;;;;;14.00;75.88;96305.47;4992169;28;20200;-80
2021/12/31 08:43:16;;;;;;;2.30;1.30;;;;;;;13.99;75.50;96299.47;4992693;28;20211;-80
2021/12/31 08:45:42;;;;;;;1.30;1.20;;;;;;;14.11;75.47;96305.00;4991794;28;20731;-80
2021/12/31 08:48:09;;;;;;;1.10;1.00;;;;;;;14.17;74.94;96299.09;4991425;28;20677;-80
2021/12/31 08:50:36;;;;;;;1.30;1.20;;;;;;;14.19;74.56;96302.31;4991076;28;20598;-78
2021/12/31 08:53:04;;;;;;;1.20;1.10;;;;;;;14.27;74.79;96298.78;4992030;28;20220;-78
2021/12/31 08:55:32;;;;;;;1.63;1.10;;;;;;;14.25;74.08;96298.97;4992524;28;20210;-80
2021/12/31 08:57:58;;;;;;;1.20;1.10;;;;;;;14.25;74.39;96295.59;4991070;28;20218;-79
2021/12/31 09:00:25;;;;;;;1.23;1.13;;;;;;;14.29;74.71;96294.25;4991935;28;20207;-79
2021/12/31 09:02:51;;;;;;;1.10;1.10;;;;;;;14.29;73.79;96289.06;4991673;28;20204;-78
2021/12/31 09:05:18;;;;;;;1.03;1.00;;;;;;;14.34;74.43;96278.97;4991566;28;20207;-79
2021/12/31 09:07:45;;;;;;;2.10;1.20;;;;;;;14.29;74.27;96282.09;4991350;28;20667;-80
2021/12/31 09:10:13;;;;;;;1.53;1.40;;;;;;;14.32;74.22;96281.72;4991163;28;20961;-79
2021/12/31 09:12:44;;;;;;;1.70;1.50;;;;;;;14.43;73.92;96283.88;4991082;28;20387;-80
2021/12/31 09:15:11;;;;;;;4.33;3.93;;;;;;;14.76;73.27;96279.03;4991419;28;20208;-79
2021/12/31 09:17:37;;;;;;;3.43;3.13;;;;;;;14.92;72.98;96284.94;4991632;28;20208;-80
2021/12/31 09:20:05;;;;;;;1.88;1.70;;;;;;;15.11;72.50;96279.94;4989973;28;20235;-80
2021/12/31 09:22:31;;;;;;;3.40;1.20;;;;;;;15.51;70.30;96280.22;4990472;28;20198;-79
2021/12/31 09:24:58;;;;;;;1.10;1.00;;;;;;;15.81;69.64;96278.22;4991050;28;20219;-80
2021/12/31 09:27:25;;;;;;;1.23;1.10;;;;;;;16.10;68.47;96277.97;4991582;28;20200;-80
2021/12/31 09:29:54;;;;;;;1.38;0.80;;;;;;;16.29;67.15;96276.44;4992220;28;20354;-81
2021/12/31 09:32:21;;;;;;;1.15;1.05;;;;;;;16.54;66.17;96274.13;4990972;28;20204;-80
2021/12/31 09:34:48;;;;;;;1.17;1.08;;;;;;;16.70;65.65;96278.19;4991013;28;20206;-79
2021/12/31 09:37:15;;;;;;;1.40;0.98;;;;;;;16.93;64.90;96270.81;4995639;28;20253;-80
2021/12/31 09:39:42;;;;;;;1.23;1.10;;;;;;;17.12;64.63;96277.84;4994952;28;20239;-80
2021/12/31 09:42:09;;;;;;;0.88;0.88;;;;;;;17.24;62.75;96283.25;4995796;28;20196;-80
2021/12/31 09:44:37;;;;;;;1.20;1.10;;;;;;;17.29;62.00;96285.25;4995465;28;20637;-80
2021/12/31 09:47:10;;;;;;;1.08;0.98;;;;;;;17.38;62.77;96289.22;4994751;28;20210;-80
2021/12/31 09:49:37;;;;;;;1.20;1.10;;;;;;;17.46;62.14;96289.03;4995090;28;20228;-81
2021/12/31 09:52:04;;;;;;;5.40;4.97;;;;;;;17.42;60.99;96288.63;4994402;28;20195;-79
2021/12/31 09:54:31;;;;;;;8.68;7.80;;;;;;;17.44;61.04;96288.44;4995435;28;20226;-79
2021/12/31 09:57:02;;;;;;;3.78;3.47;;;;;;;17.55;61.77;96287.81;4995751;28;20207;-80
2021/12/31 09:59:29;;;;;;;1.38;1.27;;;;;;;17.61;60.70;96287.81;4995246;28;20320;-80
2021/12/31 10:01:56;;;;;;;0.80;0.80;;;;;;;17.60;60.29;96288.81;4994861;28;20208;-80
2021/12/31 10:04:24;;;;;;;1.00;1.00;;;;;;;17.67;60.73;96288.03;4992503;28;21177;-79
2021/12/31 10:07:11;;;;;;;1.85;0.75;;;;;;;17.60;59.71;96286.19;4995165;28;20207;-80
2021/12/31 10:09:40;;;;;;;0.73;0.73;;;;;;;17.66;60.30;96284.63;4994382;28;20231;-79
2021/12/31 10:12:07;;;;;;;0.75;0.75;;;;;;;17.71;59.58;96284.00;4993994;28;20204;-80
2021/12/31 10:14:34;;;;;;;0.70;0.70;;;;;;;17.73;58.75;96282.78;4995411;28;20224;-80
2021/12/31 10:17:01;;;;;;;0.90;0.90;;;;;;;17.80;58.69;96290.59;4995954;28;20250;-80
2021/12/31 10:19:29;;;;;;;1.38;1.00;;;;;;;17.69;58.65;96288.63;4996234;28;20235;-79
2021/12/31 10:21:56;;;;;;;0.80;0.80;;;;;;;17.66;58.17;96279.41;4994507;28;20215;-80
2021/12/31 10:24:25;;;;;;;2.45;1.00;;;;;;;17.60;58.32;96275.78;4996178;28;20932;-81
2021/12/31 10:26:52;;;;;;;0.80;0.80;;;;;;;17.65;58.84;96270.00;4992053;28;20200;-81
2021/12/31 10:29:19;;;;;;;0.85;0.85;;;;;;;17.65;58.96;96264.78;4994537;28;20235;-81
2021/12/31 10:31:47;;;;;;;2.78;2.53;;;;;;;17.58;57.83;96256.97;4994234;28;20195;-81
2021/12/31 10:34:28;;;;;;;7.40;6.70;;;;;;;17.66;57.70;96260.38;4994564;28;20230;-81
2021/12/31 10:36:57;;;;;;;1.25;1.15;;;;;;;17.69;57.48;96252.97;4990169;28;20649;-80
2021/12/31 10:39:26;;;;;;;0.80;0.80;;;;;;;17.71;57.33;96253.53;4994143;28;20239;-80
2021/12/31 10:42:02;;;;;;;0.70;0.70;;;;;;;17.75;57.10;96244.31;4995064;28;20199;-80
2021/12/31 10:44:44;;;;;;;1.35;0.80;;;;;;;17.73;56.76;96240.31;4995113;28;20210;-80
2021/12/31 10:47:13;;;;;;;0.70;0.70;;;;;;;17.83;57.34;96238.09;4992420;28;20196;-80
2021/12/31 10:50:15;;;;;;;0.80;0.80;;;;;;;17.84;56.51;96232.69;4996777;28;20235;-80
2021/12/31 10:52:53;;;;;;;0.82;0.80;;;;;;;17.80;56.89;96220.28;4989691;28;20214;-80
2021/12/31 10:55:24;;;;;;;0.73;0.73;;;;;;;17.67;56.25;96210.69;4994841;28;20223;-81
2021/12/31 10:57:52;;;;;;;0.80;0.80;;;;;;;17.62;56.99;96215.69;4995035;28;20231;-81
2021/12/31 11:00:21;;;;;;;0.50;0.50;;;;;;;17.65;56.35;96219.72;4994888;28;20204;-80
2021/12/31 11:02:48;;;;;;;0.68;0.68;;;;;;;17.65;56.19;96212.72;4995599;28;20200;-81
2021/12/31 11:05:16;;;;;;;0.60;0.60;;;;;;;17.55;55.93;96213.09;4995079;28;20210;-81
2021/12/31 11:07:45;;;;;;;0.90;0.70;;;;;;;17.52;56.27;96215.28;4994148;28;20203;-81
2021/12/31 11:10:12;;;;;;;0.60;0.60;;;;;;;17.46;55.76;96214.31;4993485;28;20234;-81
2021/12/31 11:12:43;;;;;;;0.70;0.70;;;;;;;17.53;56.09;96207.28;4994082;28;20203;-81
2021/12/31 11:15:10;;;;;;;1.38;1.13;;;;;;;17.57;55.91;96212.88;4993790;28;20192;-81
2021/12/31 11:17:38;;;;;;;0.80;0.80;;;;;;;17.58;56.10;96217.09;4994702;28;20214;-81
2021/12/31 11:20:06;;;;;;;0.77;0.77;;;;;;;17.70;56.03;96212.09;4993871;28;20785;-81
2021/12/31 11:22:33;;;;;;;0.77;0.77;;;;;;;17.70;56.60;96210.28;4993173;28;20199;-81
2021/12/31 11:25:25;;;;;;;0.80;0.80;;;;;;;17.79;55.73;96195.22;4994492;28;20207;-81
2021/12/31 11:27:53;;;;;;;1.55;0.63;;;;;;;17.78;55.69;96189.22;4975297;28;20204;-81
2021/12/31 11:30:29;;;;;;;0.60;0.60;;;;;;;17.87;55.45;96198.41;4992130;28;20210;-81
2021/12/31 11:32:58;;;;;;;0.77;0.77;;;;;;;17.88;54.89;96194.81;4993984;28;20207;-81
2021/12/31 11:35:30;;;;;;;0.70;0.68;;;;;;;18.00;55.35;96196.75;5003439;28;20203;-81
2021/12/31 11:37:57;;;;;;;1.80;1.08;;;;;;;18.00;55.35;96196.75;5003868;28;20203;-81